sensor_id;sensor_type;location;lat;lon;timestamp;pressure;altitude;pressure_sealevel;temperature;humidity
62942;BME280;49042;47.318;19.874;2022-10-31T00:01:17;101103.84;;;12.14;100.00
62942;BME280;49042;47.318;19.874;2022-10-31T00:04:19;101111.91;;;12.19;100.00
62942;BME280;49042;47.318;19.874;2022-10-31T00:07:21;101107.25;;;12.12;100.00
62942;BME280;49042;47.318;19.874;2022-10-31T00:10:23;101104.47;;;12.07;100.00
62942;BME280;49042;47.318;19.874;2022-10-31T00:13:25;101104.91;;;12.19;100.00
62942;BME280;49042;47.318;19.874;2022-10-31T00:16:28;101103.84;;;12.14;100.00
62942;BME280;49042;47.318;19.874;2022-10-31T00:19:29;101104.81;;;12.16;100.00
62942;BME280;49042;47.318;19.874;2022-10-31T00:22:31;101107.50;;;12.18;100.00
62942;BME280;49042;47.318;19.874;2022-10-31T00:25:35;101098.34;;;12.31;100.00
62942;BME280;49042;47.318;19.874;2022-10-31T00:28:37;101095.44;;;12.22;100.00
62942;BME280;49042;47.318;19.874;2022-10-31T00:31:39;101102.03;;;12.12;100.00
62942;BME280;49042;47.318;19.874;2022-10-31T00:34:41;101088.72;;;12.30;100.00
62942;BME280;49042;47.318;19.874;2022-10-31T00:37:43;101089.97;;;12.15;100.00
62942;BME280;49042;47.318;19.874;2022-10-31T00:40:48;101095.53;;;11.75;100.00
62942;BME280;49042;47.318;19.874;2022-10-31T00:43:50;101094.13;;;11.85;100.00
62942;BME280;49042;47.318;19.874;2022-10-31T00:46:52;101096.12;;;11.93;100.00
62942;BME280;49042;47.318;19.874;2022-10-31T00:49:54;101087.59;;;11.98;100.00
62942;BME280;49042;47.318;19.874;2022-10-31T00:52:55;101097.81;;;11.91;100.00
62942;BME280;49042;47.318;19.874;2022-10-31T00:55:58;101091.69;;;11.65;100.00
62942;BME280;49042;47.318;19.874;2022-10-31T00:59:00;101093.09;;;11.80;100.00
62942;BME280;49042;47.318;19.874;2022-10-31T01:02:02;101085.28;;;11.57;100.00
62942;BME280;49042;47.318;19.874;2022-10-31T01:05:04;101086.34;;;11.62;100.00
62942;BME280;49042;47.318;19.874;2022-10-31T01:08:06;101078.00;;;11.73;100.00
62942;BME280;49042;47.318;19.874;2022-10-31T01:11:18;101091.06;;;11.48;100.00
62942;BME280;49042;47.318;19.874;2022-10-31T01:14:21;101072.81;;;11.74;100.00
62942;BME280;49042;47.318;19.874;2022-10-31T01:17:22;101074.97;;;11.37;100.00
62942;BME280;49042;47.318;19.874;2022-10-31T01:20:24;101080.34;;;11.65;100.00
62942;BME280;49042;47.318;19.874;2022-10-31T01:23:26;101076.34;;;11.75;100.00
62942;BME280;49042;47.318;19.874;2022-10-31T01:26:30;101081.25;;;11.42;100.00
62942;BME280;49042;47.318;19.874;2022-10-31T01:29:33;101083.75;;;11.39;100.00
62942;BME280;49042;47.318;19.874;2022-10-31T01:32:35;101074.94;;;11.60;100.00
62942;BME280;49042;47.318;19.874;2022-10-31T01:35:36;101069.53;;;11.55;100.00
62942;BME280;49042;47.318;19.874;2022-10-31T01:38:38;101073.22;;;11.61;100.00
62942;BME280;49042;47.318;19.874;2022-10-31T01:41:46;101073.31;;;11.64;100.00
62942;BME280;49042;47.318;19.874;2022-10-31T01:44:56;101069.88;;;11.65;100.00
62942;BME280;49042;47.318;19.874;2022-10-31T01:48:02;101063.34;;;11.76;100.00
62942;BME280;49042;47.318;19.874;2022-10-31T01:51:04;101070.28;;;11.76;100.00
62942;BME280;49042;47.318;19.874;2022-10-31T01:54:10;101063.53;;;11.58;100.00
62942;BME280;49042;47.318;19.874;2022-10-31T01:57:14;101062.75;;;11.61;100.00
62942;BME280;49042;47.318;19.874;2022-10-31T02:00:19;101068.59;;;11.53;100.00
62942;BME280;49042;47.318;19.874;2022-10-31T02:03:22;101060.97;;;11.60;100.00
62942;BME280;49042;47.318;19.874;2022-10-31T02:06:33;101062.31;;;11.48;100.00
62942;BME280;49042;47.318;19.874;2022-10-31T02:09:38;101064.16;;;11.51;100.00
62942;BME280;49042;47.318;19.874;2022-10-31T02:12:41;101058.19;;;11.30;100.00
62942;BME280;49042;47.318;19.874;2022-10-31T02:15:44;101053.00;;;11.55;100.00
62942;BME280;49042;47.318;19.874;2022-10-31T02:18:47;101062.50;;;11.30;100.00
62942;BME280;49042;47.318;19.874;2022-10-31T02:22:05;101058.34;;;11.12;100.00
62942;BME280;49042;47.318;19.874;2022-10-31T02:32:14;101048.47;;;11.51;100.00
62942;BME280;49042;47.318;19.874;2022-10-31T02:42:38;101057.50;;;11.36;100.00
62942;BME280;49042;47.318;19.874;2022-10-31T02:45:50;101059.34;;;11.39;100.00
62942;BME280;49042;47.318;19.874;2022-10-31T02:48:57;101067.84;;;11.33;100.00
62942;BME280;49042;47.318;19.874;2022-10-31T02:52:01;101067.13;;;11.37;100.00
62942;BME280;49042;47.318;19.874;2022-10-31T02:58:36;101069.38;;;11.51;100.00
62942;BME280;49042;47.318;19.874;2022-10-31T03:08:23;101071.97;;;11.51;100.00
62942;BME280;49042;47.318;19.874;2022-10-31T03:11:32;101077.50;;;11.59;100.00
62942;BME280;49042;47.318;19.874;2022-10-31T03:14:48;101073.53;;;11.70;100.00
62942;BME280;49042;47.318;19.874;2022-10-31T03:18:04;101079.34;;;11.61;100.00
62942;BME280;49042;47.318;19.874;2022-10-31T03:21:22;101083.28;;;11.74;100.00
62942;BME280;49042;47.318;19.874;2022-10-31T03:24:28;101085.78;;;11.71;100.00
62942;BME280;49042;47.318;19.874;2022-10-31T03:27:34;101093.41;;;11.65;100.00
62942;BME280;49042;47.318;19.874;2022-10-31T03:30:38;101085.72;;;11.70;100.00
62942;BME280;49042;47.318;19.874;2022-10-31T03:33:44;101090.03;;;11.44;100.00
62942;BME280;49042;47.318;19.874;2022-10-31T03:36:50;101089.06;;;11.65;100.00
62942;BME280;49042;47.318;19.874;2022-10-31T03:39:54;101085.56;;;11.65;100.00
62942;BME280;49042;47.318;19.874;2022-10-31T03:43:00;101087.50;;;11.71;100.00
62942;BME280;49042;47.318;19.874;2022-10-31T03:46:04;101087.59;;;11.74;100.00
62942;BME280;49042;47.318;19.874;2022-10-31T03:49:07;101096.62;;;11.82;100.00
62942;BME280;49042;47.318;19.874;2022-10-31T03:52:28;101090.91;;;11.68;100.00
62942;BME280;49042;47.318;19.874;2022-10-31T03:58:43;101086.97;;;11.80;100.00
62942;BME280;49042;47.318;19.874;2022-10-31T04:01:51;101091.44;;;11.84;100.00
62942;BME280;49042;47.318;19.874;2022-10-31T04:04:53;101091.72;;;11.67;100.00
62942;BME280;49042;47.318;19.874;2022-10-31T04:07:58;101088.56;;;11.51;100.00
62942;BME280;49042;47.318;19.874;2022-10-31T04:11:04;101103.00;;;11.41;100.00
62942;BME280;49042;47.318;19.874;2022-10-31T04:14:08;101104.87;;;11.22;100.00
62942;BME280;49042;47.318;19.874;2022-10-31T04:17:13;101097.87;;;11.44;100.00
62942;BME280;49042;47.318;19.874;2022-10-31T04:20:17;101107.06;;;11.34;100.00
62942;BME280;49042;47.318;19.874;2022-10-31T04:23:22;101104.81;;;11.44;100.00
62942;BME280;49042;47.318;19.874;2022-10-31T04:26:25;101105.75;;;11.46;100.00
62942;BME280;49042;47.318;19.874;2022-10-31T04:29:26;101100.00;;;11.55;100.00
62942;BME280;49042;47.318;19.874;2022-10-31T04:32:28;101099.72;;;11.47;100.00
62942;BME280;49042;47.318;19.874;2022-10-31T04:35:30;101105.41;;;11.37;100.00
62942;BME280;49042;47.318;19.874;2022-10-31T04:38:32;101106.34;;;11.39;100.00
62942;BME280;49042;47.318;19.874;2022-10-31T04:41:33;101111.53;;;11.37;100.00
62942;BME280;49042;47.318;19.874;2022-10-31T04:44:35;101111.00;;;11.23;100.00
62942;BME280;49042;47.318;19.874;2022-10-31T04:47:37;101111.81;;;11.22;100.00
62942;BME280;49042;47.318;19.874;2022-10-31T04:50:39;101105.13;;;11.29;100.00
62942;BME280;49042;47.318;19.874;2022-10-31T04:53:40;101112.13;;;11.30;100.00
62942;BME280;49042;47.318;19.874;2022-10-31T04:56:42;101108.53;;;11.28;100.00
62942;BME280;49042;47.318;19.874;2022-10-31T04:59:44;101106.41;;;11.17;100.00
62942;BME280;49042;47.318;19.874;2022-10-31T05:02:53;101111.13;;;11.26;100.00
62942;BME280;49042;47.318;19.874;2022-10-31T05:05:55;101117.78;;;11.41;100.00
62942;BME280;49042;47.318;19.874;2022-10-31T05:08:57;101114.50;;;11.46;100.00
62942;BME280;49042;47.318;19.874;2022-10-31T05:11:59;101111.16;;;11.51;100.00
62942;BME280;49042;47.318;19.874;2022-10-31T05:15:00;101126.53;;;11.43;100.00
62942;BME280;49042;47.318;19.874;2022-10-31T05:18:02;101115.37;;;11.47;100.00
62942;BME280;49042;47.318;19.874;2022-10-31T05:21:05;101118.22;;;11.53;100.00
62942;BME280;49042;47.318;19.874;2022-10-31T05:24:06;101124.16;;;11.49;100.00
62942;BME280;49042;47.318;19.874;2022-10-31T05:27:08;101115.37;;;11.47;100.00
62942;BME280;49042;47.318;19.874;2022-10-31T05:30:12;101129.63;;;11.32;100.00
62942;BME280;49042;47.318;19.874;2022-10-31T05:33:14;101125.75;;;11.45;100.00
62942;BME280;49042;47.318;19.874;2022-10-31T05:36:16;101127.28;;;11.17;100.00
62942;BME280;49042;47.318;19.874;2022-10-31T05:39:17;101132.06;;;11.06;100.00
62942;BME280;49042;47.318;19.874;2022-10-31T05:42:19;101138.06;;;11.03;100.00
62942;BME280;49042;47.318;19.874;2022-10-31T05:45:22;101135.13;;;11.17;100.00
62942;BME280;49042;47.318;19.874;2022-10-31T05:48:24;101139.13;;;11.30;100.00
62942;BME280;49042;47.318;19.874;2022-10-31T05:51:26;101133.59;;;11.45;100.00
62942;BME280;49042;47.318;19.874;2022-10-31T05:54:28;101133.00;;;11.53;100.00
62942;BME280;49042;47.318;19.874;2022-10-31T05:57:31;101135.63;;;11.53;100.00
62942;BME280;49042;47.318;19.874;2022-10-31T06:00:33;101138.41;;;11.34;100.00
62942;BME280;49042;47.318;19.874;2022-10-31T06:03:36;101136.22;;;11.45;100.00
62942;BME280;49042;47.318;19.874;2022-10-31T06:06:38;101140.22;;;11.59;100.00
62942;BME280;49042;47.318;19.874;2022-10-31T06:09:40;101135.25;;;11.66;100.00
62942;BME280;49042;47.318;19.874;2022-10-31T06:12:42;101142.44;;;11.72;100.00
62942;BME280;49042;47.318;19.874;2022-10-31T06:15:44;101138.78;;;11.44;100.00
62942;BME280;49042;47.318;19.874;2022-10-31T06:18:47;101137.59;;;11.59;100.00
62942;BME280;49042;47.318;19.874;2022-10-31T06:21:49;101143.62;;;11.57;100.00
62942;BME280;49042;47.318;19.874;2022-10-31T06:24:50;101144.75;;;11.64;100.00
62942;BME280;49042;47.318;19.874;2022-10-31T06:27:55;101155.97;;;11.85;100.00
62942;BME280;49042;47.318;19.874;2022-10-31T06:30:58;101151.53;;;11.82;100.00
62942;BME280;49042;47.318;19.874;2022-10-31T06:34:00;101153.56;;;11.91;100.00
62942;BME280;49042;47.318;19.874;2022-10-31T06:37:02;101148.53;;;11.96;100.00
62942;BME280;49042;47.318;19.874;2022-10-31T06:40:04;101159.75;;;11.93;100.00
62942;BME280;49042;47.318;19.874;2022-10-31T06:43:06;101162.75;;;11.80;100.00
62942;BME280;49042;47.318;19.874;2022-10-31T06:46:08;101166.25;;;11.57;100.00
62942;BME280;49042;47.318;19.874;2022-10-31T06:49:09;101167.09;;;11.56;100.00
62942;BME280;49042;47.318;19.874;2022-10-31T06:52:11;101171.03;;;11.44;100.00
62942;BME280;49042;47.318;19.874;2022-10-31T06:55:13;101163.47;;;11.52;100.00
62942;BME280;49042;47.318;19.874;2022-10-31T06:58:15;101163.09;;;11.43;100.00
62942;BME280;49042;47.318;19.874;2022-10-31T07:01:17;101171.75;;;11.42;100.00
62942;BME280;49042;47.318;19.874;2022-10-31T07:04:19;101167.50;;;11.44;100.00
62942;BME280;49042;47.318;19.874;2022-10-31T07:07:20;101162.28;;;11.44;100.00
62942;BME280;49042;47.318;19.874;2022-10-31T07:10:24;101172.19;;;11.53;100.00
62942;BME280;49042;47.318;19.874;2022-10-31T07:13:27;101167.22;;;11.36;100.00
62942;BME280;49042;47.318;19.874;2022-10-31T07:16:28;101170.72;;;11.37;100.00
62942;BME280;49042;47.318;19.874;2022-10-31T07:19:30;101166.34;;;11.59;100.00
62942;BME280;49042;47.318;19.874;2022-10-31T07:22:34;101160.81;;;11.51;100.00
62942;BME280;49042;47.318;19.874;2022-10-31T07:25:37;101165.06;;;11.49;100.00
62942;BME280;49042;47.318;19.874;2022-10-31T07:28:39;101162.44;;;11.49;100.00
62942;BME280;49042;47.318;19.874;2022-10-31T07:31:41;101169.88;;;11.61;100.00
62942;BME280;49042;47.318;19.874;2022-10-31T07:34:43;101169.28;;;11.68;100.00
62942;BME280;49042;47.318;19.874;2022-10-31T07:37:48;101172.66;;;11.88;100.00
62942;BME280;49042;47.318;19.874;2022-10-31T07:40:51;101170.75;;;11.84;100.00
62942;BME280;49042;47.318;19.874;2022-10-31T07:43:56;101173.66;;;11.92;100.00
62942;BME280;49042;47.318;19.874;2022-10-31T07:46:58;101173.78;;;11.49;100.00
62942;BME280;49042;47.318;19.874;2022-10-31T07:49:59;101177.38;;;11.51;100.00
62942;BME280;49042;47.318;19.874;2022-10-31T07:53:09;101177.06;;;11.66;100.00
62942;BME280;49042;47.318;19.874;2022-10-31T07:56:11;101181.41;;;11.66;100.00
62942;BME280;49042;47.318;19.874;2022-10-31T07:59:13;101180.31;;;11.84;100.00
62942;BME280;49042;47.318;19.874;2022-10-31T08:02:15;101176.56;;;11.77;100.00
62942;BME280;49042;47.318;19.874;2022-10-31T08:05:16;101184.81;;;11.88;100.00
62942;BME280;49042;47.318;19.874;2022-10-31T08:08:19;101187.62;;;11.93;100.00
62942;BME280;49042;47.318;19.874;2022-10-31T08:11:21;101184.94;;;11.91;100.00
62942;BME280;49042;47.318;19.874;2022-10-31T08:14:25;101194.13;;;11.80;100.00
62942;BME280;49042;47.318;19.874;2022-10-31T08:17:27;101189.41;;;11.94;100.00
62942;BME280;49042;47.318;19.874;2022-10-31T08:20:29;101194.94;;;11.78;100.00
62942;BME280;49042;47.318;19.874;2022-10-31T08:23:31;101196.06;;;11.85;100.00
62942;BME280;49042;47.318;19.874;2022-10-31T08:26:33;101198.91;;;11.92;100.00
62942;BME280;49042;47.318;19.874;2022-10-31T08:29:35;101201.75;;;11.98;100.00
62942;BME280;49042;47.318;19.874;2022-10-31T08:32:36;101210.09;;;12.12;100.00
62942;BME280;49042;47.318;19.874;2022-10-31T08:35:39;101196.50;;;11.98;100.00
62942;BME280;49042;47.318;19.874;2022-10-31T08:38:41;101200.59;;;11.89;100.00
62942;BME280;49042;47.318;19.874;2022-10-31T08:41:44;101202.13;;;11.84;100.00
62942;BME280;49042;47.318;19.874;2022-10-31T08:44:45;101196.06;;;12.08;100.00
62942;BME280;49042;47.318;19.874;2022-10-31T08:47:47;101200.31;;;12.06;100.00
62942;BME280;49042;47.318;19.874;2022-10-31T08:50:49;101199.37;;;12.04;100.00
62942;BME280;49042;47.318;19.874;2022-10-31T08:53:51;101205.22;;;11.97;100.00
62942;BME280;49042;47.318;19.874;2022-10-31T08:56:55;101202.00;;;11.81;100.00
62942;BME280;49042;47.318;19.874;2022-10-31T08:59:57;101206.94;;;11.73;100.00
62942;BME280;49042;47.318;19.874;2022-10-31T09:03:05;101212.59;;;11.61;100.00
62942;BME280;49042;47.318;19.874;2022-10-31T09:06:06;101213.28;;;11.34;100.00
62942;BME280;49042;47.318;19.874;2022-10-31T09:09:10;101208.78;;;10.88;100.00
62942;BME280;49042;47.318;19.874;2022-10-31T09:12:12;101206.34;;;11.13;100.00
62942;BME280;49042;47.318;19.874;2022-10-31T09:15:14;101214.78;;;11.29;100.00
62942;BME280;49042;47.318;19.874;2022-10-31T09:18:21;101211.28;;;11.07;100.00
62942;BME280;49042;47.318;19.874;2022-10-31T09:21:23;101211.81;;;11.19;100.00
62942;BME280;49042;47.318;19.874;2022-10-31T09:24:25;101212.00;;;11.02;100.00
62942;BME280;49042;47.318;19.874;2022-10-31T09:27:27;101216.47;;;11.27;100.00
62942;BME280;49042;47.318;19.874;2022-10-31T09:30:30;101218.06;;;11.23;100.00
62942;BME280;49042;47.318;19.874;2022-10-31T09:33:32;101220.06;;;11.52;100.00
62942;BME280;49042;47.318;19.874;2022-10-31T09:36:36;101223.22;;;11.66;100.00
62942;BME280;49042;47.318;19.874;2022-10-31T09:39:37;101214.56;;;11.90;100.00
62942;BME280;49042;47.318;19.874;2022-10-31T09:43:22;101217.84;;;12.09;100.00
62942;BME280;49042;47.318;19.874;2022-10-31T09:46:33;101214.44;;;11.87;100.00
62942;BME280;49042;47.318;19.874;2022-10-31T09:49:57;101211.75;;;12.08;100.00
62942;BME280;49042;47.318;19.874;2022-10-31T09:53:09;101211.22;;;11.71;100.00
62942;BME280;49042;47.318;19.874;2022-10-31T09:56:18;101212.53;;;11.38;100.00
62942;BME280;49042;47.318;19.874;2022-10-31T09:59:29;101217.22;;;11.24;100.00
62942;BME280;49042;47.318;19.874;2022-10-31T10:02:55;101215.34;;;11.43;100.00
62942;BME280;49042;47.318;19.874;2022-10-31T10:09:09;101214.47;;;11.88;100.00
62942;BME280;49042;47.318;19.874;2022-10-31T10:12:35;101209.78;;;12.03;100.00
62942;BME280;49042;47.318;19.874;2022-10-31T10:15:50;101204.72;;;12.07;100.00
62942;BME280;49042;47.318;19.874;2022-10-31T10:19:06;101202.50;;;11.94;100.00
62942;BME280;49042;47.318;19.874;2022-10-31T10:25:38;101209.19;;;11.64;100.00
62942;BME280;49042;47.318;19.874;2022-10-31T10:28:50;101212.16;;;11.96;100.00
62942;BME280;49042;47.318;19.874;2022-10-31T10:32:00;101209.16;;;12.10;100.00
62942;BME280;49042;47.318;19.874;2022-10-31T10:38:27;101212.72;;;12.12;100.00
62942;BME280;49042;47.318;19.874;2022-10-31T10:41:32;101208.00;;;12.25;100.00
62942;BME280;49042;47.318;19.874;2022-10-31T10:44:40;101206.87;;;12.18;100.00
62942;BME280;49042;47.318;19.874;2022-10-31T10:48:12;101203.66;;;11.56;100.00
62942;BME280;49042;47.318;19.874;2022-10-31T10:51:20;101204.13;;;11.45;100.00
62942;BME280;49042;47.318;19.874;2022-10-31T10:58:03;101199.50;;;11.17;100.00
62942;BME280;49042;47.318;19.874;2022-10-31T11:01:15;101194.59;;;11.24;100.00
62942;BME280;49042;47.318;19.874;2022-10-31T11:04:33;101194.03;;;11.10;100.00
62942;BME280;49042;47.318;19.874;2022-10-31T11:07:39;101190.16;;;11.22;100.00
62942;BME280;49042;47.318;19.874;2022-10-31T11:10:41;101184.84;;;11.20;100.00
62942;BME280;49042;47.318;19.874;2022-10-31T11:13:48;101185.00;;;11.23;100.00
62942;BME280;49042;47.318;19.874;2022-10-31T11:17:07;101190.63;;;11.34;100.00
62942;BME280;49042;47.318;19.874;2022-10-31T11:23:21;101182.75;;;11.56;100.00
62942;BME280;49042;47.318;19.874;2022-10-31T11:26:23;101187.41;;;11.19;100.00
62942;BME280;49042;47.318;19.874;2022-10-31T11:29:25;101180.06;;;11.31;100.00
62942;BME280;49042;47.318;19.874;2022-10-31T11:32:27;101179.91;;;11.50;100.00
62942;BME280;49042;47.318;19.874;2022-10-31T11:35:31;101179.25;;;11.55;100.00
62942;BME280;49042;47.318;19.874;2022-10-31T11:38:42;101175.94;;;11.60;100.00
62942;BME280;49042;47.318;19.874;2022-10-31T11:41:45;101178.56;;;11.83;100.00
62942;BME280;49042;47.318;19.874;2022-10-31T11:44:48;101169.72;;;12.04;100.00
62942;BME280;49042;47.318;19.874;2022-10-31T11:47:54;101162.94;;;12.09;100.00
62942;BME280;49042;47.318;19.874;2022-10-31T11:51:00;101161.47;;;12.16;100.00
62942;BME280;49042;47.318;19.874;2022-10-31T11:54:03;101163.63;;;12.28;100.00
62942;BME280;49042;47.318;19.874;2022-10-31T11:57:31;101152.28;;;12.27;100.00
62942;BME280;49042;47.318;19.874;2022-10-31T12:00:37;101154.94;;;12.04;100.00
62942;BME280;49042;47.318;19.874;2022-10-31T12:03:51;101163.47;;;11.75;100.00
62942;BME280;49042;47.318;19.874;2022-10-31T12:06:57;101162.28;;;11.67;100.00
62942;BME280;49042;47.318;19.874;2022-10-31T12:09:59;101157.81;;;11.64;100.00
62942;BME280;49042;47.318;19.874;2022-10-31T12:13:30;101153.31;;;11.37;100.00
62942;BME280;49042;47.318;19.874;2022-10-31T12:20:36;101157.34;;;11.29;100.00
62942;BME280;49042;47.318;19.874;2022-10-31T12:27:22;101158.81;;;11.45;100.00
62942;BME280;49042;47.318;19.874;2022-10-31T12:41:14;101151.34;;;12.02;100.00
62942;BME280;49042;47.318;19.874;2022-10-31T12:48:01;101158.19;;;12.22;100.00
62942;BME280;49042;47.318;19.874;2022-10-31T12:58:14;101158.66;;;11.63;100.00
62942;BME280;49042;47.318;19.874;2022-10-31T13:04:50;101160.22;;;11.58;100.00
62942;BME280;49042;47.318;19.874;2022-10-31T13:14:32;101150.59;;;11.80;100.00
62942;BME280;49042;47.318;19.874;2022-10-31T13:17:44;101156.72;;;11.57;100.00
62942;BME280;49042;47.318;19.874;2022-10-31T13:20:48;101148.38;;;11.45;100.00
62942;BME280;49042;47.318;19.874;2022-10-31T13:23:58;101154.81;;;11.53;100.00
62942;BME280;49042;47.318;19.874;2022-10-31T13:27:11;101153.66;;;11.70;100.00
62942;BME280;49042;47.318;19.874;2022-10-31T13:30:20;101148.38;;;11.68;100.00
62942;BME280;49042;47.318;19.874;2022-10-31T13:33:37;101154.81;;;11.76;100.00
62942;BME280;49042;47.318;19.874;2022-10-31T13:36:42;101152.63;;;11.41;100.00
62942;BME280;49042;47.318;19.874;2022-10-31T13:43:32;101152.91;;;11.05;100.00
62942;BME280;49042;47.318;19.874;2022-10-31T13:46:39;101161.25;;;10.96;100.00
62942;BME280;49042;47.318;19.874;2022-10-31T13:49:41;101149.50;;;11.06;100.00
62942;BME280;49042;47.318;19.874;2022-10-31T13:53:03;101156.16;;;11.43;100.00
62942;BME280;49042;47.318;19.874;2022-10-31T13:56:15;101156.09;;;11.65;100.00
62942;BME280;49042;47.318;19.874;2022-10-31T13:59:21;101153.13;;;11.55;100.00
62942;BME280;49042;47.318;19.874;2022-10-31T14:02:32;101147.56;;;11.46;100.00
62942;BME280;49042;47.318;19.874;2022-10-31T14:05:35;101149.81;;;11.60;100.00
62942;BME280;49042;47.318;19.874;2022-10-31T14:08:42;101151.38;;;11.54;100.00
62942;BME280;49042;47.318;19.874;2022-10-31T14:11:49;101148.22;;;11.40;100.00
62942;BME280;49042;47.318;19.874;2022-10-31T14:14:55;101151.19;;;11.27;100.00
62942;BME280;49042;47.318;19.874;2022-10-31T14:18:01;101155.03;;;11.37;100.00
62942;BME280;49042;47.318;19.874;2022-10-31T14:21:25;101146.53;;;11.19;100.00
62942;BME280;49042;47.318;19.874;2022-10-31T14:27:46;101150.72;;;11.37;100.00
62942;BME280;49042;47.318;19.874;2022-10-31T14:30:56;101145.91;;;11.48;100.00
62942;BME280;49042;47.318;19.874;2022-10-31T14:34:00;101141.63;;;11.27;100.00
62942;BME280;49042;47.318;19.874;2022-10-31T14:40:33;101139.47;;;11.40;100.00
62942;BME280;49042;47.318;19.874;2022-10-31T14:53:20;101131.00;;;11.22;100.00
62942;BME280;49042;47.318;19.874;2022-10-31T14:59:31;101139.63;;;10.98;100.00
62942;BME280;49042;47.318;19.874;2022-10-31T15:06:05;101142.41;;;11.03;100.00
62942;BME280;49042;47.318;19.874;2022-10-31T15:12:35;101135.84;;;11.13;100.00
62942;BME280;49042;47.318;19.874;2022-10-31T15:15:40;101130.69;;;10.93;100.00
62942;BME280;49042;47.318;19.874;2022-10-31T15:19:05;101137.78;;;10.74;100.00
62942;BME280;49042;47.318;19.874;2022-10-31T15:22:10;101136.84;;;11.17;100.00
62942;BME280;49042;47.318;19.874;2022-10-31T15:25:25;101135.91;;;10.93;100.00
62942;BME280;49042;47.318;19.874;2022-10-31T15:28:27;101142.69;;;10.88;100.00
62942;BME280;49042;47.318;19.874;2022-10-31T15:31:29;101138.72;;;10.98;100.00
62942;BME280;49042;47.318;19.874;2022-10-31T15:34:41;101148.28;;;10.97;100.00
62942;BME280;49042;47.318;19.874;2022-10-31T15:37:43;101141.91;;;10.90;100.00
62942;BME280;49042;47.318;19.874;2022-10-31T15:40:53;101144.00;;;10.78;100.00
62942;BME280;49042;47.318;19.874;2022-10-31T15:44:01;101149.34;;;10.59;100.00
62942;BME280;49042;47.318;19.874;2022-10-31T15:47:06;101147.66;;;10.60;100.00
62942;BME280;49042;47.318;19.874;2022-10-31T15:50:25;101147.91;;;10.66;100.00
62942;BME280;49042;47.318;19.874;2022-10-31T15:53:35;101156.47;;;10.85;100.00
62942;BME280;49042;47.318;19.874;2022-10-31T15:56:37;101153.75;;;10.82;100.00
62942;BME280;49042;47.318;19.874;2022-10-31T15:59:42;101153.69;;;10.80;100.00
62942;BME280;49042;47.318;19.874;2022-10-31T16:02:46;101157.25;;;10.82;100.00
62942;BME280;49042;47.318;19.874;2022-10-31T16:05:53;101160.09;;;10.67;100.00
62942;BME280;49042;47.318;19.874;2022-10-31T16:08:55;101169.09;;;10.74;100.00
62942;BME280;49042;47.318;19.874;2022-10-31T16:11:57;101161.44;;;10.79;100.00
62942;BME280;49042;47.318;19.874;2022-10-31T16:15:01;101162.47;;;10.82;100.00
62942;BME280;49042;47.318;19.874;2022-10-31T16:18:03;101161.97;;;10.91;100.00
62942;BME280;49042;47.318;19.874;2022-10-31T16:21:07;101162.66;;;10.87;100.00
62942;BME280;49042;47.318;19.874;2022-10-31T16:24:15;101169.22;;;10.99;100.00
62942;BME280;49042;47.318;19.874;2022-10-31T16:27:24;101168.25;;;10.97;100.00
62942;BME280;49042;47.318;19.874;2022-10-31T16:30:37;101176.22;;;11.00;100.00
62942;BME280;49042;47.318;19.874;2022-10-31T16:33:47;101172.00;;;11.03;100.00
62942;BME280;49042;47.318;19.874;2022-10-31T16:36:49;101180.53;;;10.99;100.00
62942;BME280;49042;47.318;19.874;2022-10-31T16:39:51;101183.09;;;10.98;100.00
62942;BME280;49042;47.318;19.874;2022-10-31T16:42:56;101180.72;;;10.82;100.00
62942;BME280;49042;47.318;19.874;2022-10-31T16:46:00;101175.75;;;10.67;100.00
62942;BME280;49042;47.318;19.874;2022-10-31T16:49:02;101174.38;;;10.76;100.00
62942;BME280;49042;47.318;19.874;2022-10-31T16:52:04;101178.06;;;10.59;100.00
62942;BME280;49042;47.318;19.874;2022-10-31T16:55:10;101183.38;;;10.43;100.00
62942;BME280;49042;47.318;19.874;2022-10-31T16:58:34;101184.78;;;10.54;100.00
62942;BME280;49042;47.318;19.874;2022-10-31T17:01:36;101180.09;;;10.67;100.00
62942;BME280;49042;47.318;19.874;2022-10-31T17:04:39;101179.59;;;10.76;100.00
62942;BME280;49042;47.318;19.874;2022-10-31T17:07:41;101188.34;;;10.56;100.00
62942;BME280;49042;47.318;19.874;2022-10-31T17:10:44;101189.37;;;10.81;100.00
62942;BME280;49042;47.318;19.874;2022-10-31T17:13:48;101189.69;;;10.68;100.00
62942;BME280;49042;47.318;19.874;2022-10-31T17:16:50;101184.88;;;10.77;100.00
62942;BME280;49042;47.318;19.874;2022-10-31T17:19:52;101188.69;;;10.86;100.00
62942;BME280;49042;47.318;19.874;2022-10-31T17:22:55;101196.25;;;10.79;100.00
62942;BME280;49042;47.318;19.874;2022-10-31T17:25:58;101193.59;;;10.99;100.00
62942;BME280;49042;47.318;19.874;2022-10-31T17:29:00;101201.34;;;10.76;100.00
62942;BME280;49042;47.318;19.874;2022-10-31T17:32:04;101201.53;;;10.59;100.00
62942;BME280;49042;47.318;19.874;2022-10-31T17:35:08;101203.28;;;10.60;100.00
62942;BME280;49042;47.318;19.874;2022-10-31T17:38:10;101206.78;;;10.61;100.00